Time,TemperatureF,DewpointF,PressureIn,WindDirection,WindDirectionDegrees,WindSpeedMPH,WindSpeedGustMPH,Humidity,HourlyPrecipIn,Conditions,Clouds,dailyrainin,SoftwareType,DateUTC
2013-04-18 00:03:00,54.4,28.6,30.18,SE,138,0.0,0.0,37,0.00,,,0.00,Wunderground v.1.15,2013-04-18 07:03:00,
2013-04-18 00:09:00,54.1,29.0,30.18,SE,138,0.0,0.0,38,0.00,,,0.00,Wunderground v.1.15,2013-04-18 07:09:00,
2013-04-18 00:15:00,53.8,29.4,30.18,SE,137,0.0,0.0,39,0.00,,,0.00,Wunderground v.1.15,2013-04-18 07:15:00,
2013-04-18 00:21:00,53.6,30.4,30.18,East,92,0.0,0.0,41,0.00,,,0.00,Wunderground v.1.15,2013-04-18 07:21:00,
2013-04-18 00:27:00,53.2,30.7,30.18,East,92,0.0,0.0,42,0.00,,,0.00,Wunderground v.1.15,2013-04-18 07:27:00,
2013-04-18 00:33:00,52.9,30.4,30.18,East,92,0.0,0.0,42,0.00,,,0.00,Wunderground v.1.15,2013-04-18 07:33:00,
2013-04-18 00:39:00,52.7,29.6,30.18,East,92,0.0,0.0,41,0.00,,,0.00,Wunderground v.1.15,2013-04-18 07:39:00,
2013-04-18 00:45:00,52.4,29.4,30.18,SSE,156,0.0,0.0,41,0.00,,,0.00,Wunderground v.1.15,2013-04-18 07:45:00,
2013-04-18 00:50:00,52.2,28.6,30.18,SSE,161,0.0,0.0,40,0.00,,,0.00,Wunderground v.1.15,2013-04-18 07:50:00,
2013-04-18 00:56:00,52.0,28.4,30.18,SSE,161,0.0,0.0,40,0.00,,,0.00,Wunderground v.1.15,2013-04-18 07:56:00,
2013-04-18 01:01:00,51.8,30.0,30.18,SSE,161,0.0,0.0,43,0.00,,,0.00,Wunderground v.1.15,2013-04-18 08:01:00,
2013-04-18 01:07:00,51.6,29.2,30.18,NW,325,0.0,0.0,42,0.00,,,0.00,Wunderground v.1.15,2013-04-18 08:07:00,
2013-04-18 01:12:00,51.5,29.7,30.18,North,11,0.0,0.0,43,0.00,,,0.00,Wunderground v.1.15,2013-04-18 08:12:00,
2013-04-18 01:17:00,51.4,29.1,30.18,North,11,0.0,0.0,42,0.00,,,0.00,Wunderground v.1.15,2013-04-18 08:17:00,
2013-04-18 01:23:00,51.3,28.4,30.18,North,11,0.0,0.0,41,0.00,,,0.00,Wunderground v.1.15,2013-04-18 08:23:00,
2013-04-18 01:29:00,51.2,28.9,30.18,North,11,0.0,0.0,42,0.00,,,0.00,Wunderground v.1.15,2013-04-18 08:29:00,
2013-04-18 01:35:00,51.1,28.8,30.18,North,11,0.0,0.0,42,0.00,,,0.00,Wunderground v.1.15,2013-04-18 08:35:00,
2013-04-18 01:41:00,50.9,29.7,30.18,ESE,118,0.0,0.0,44,0.00,,,0.00,Wunderground v.1.15,2013-04-18 08:41:00,
2013-04-18 01:46:00,50.7,29.6,30.18,ESE,119,0.0,0.0,44,0.00,,,0.00,Wunderground v.1.15,2013-04-18 08:46:00,
2013-04-18 01:52:00,50.5,30.5,30.18,ESE,118,0.0,0.0,46,0.00,,,0.00,Wunderground v.1.15,2013-04-18 08:52:00,
2013-04-18 01:57:00,50.3,29.7,30.18,SE,137,0.0,0.0,45,0.00,,,0.00,Wunderground v.1.15,2013-04-18 08:57:00,
2013-04-18 02:02:00,50.1,29.6,30.18,SE,137,0.0,0.0,45,0.00,,,0.00,Wunderground v.1.15,2013-04-18 09:02:00,
2013-04-18 02:07:00,50.0,30.0,30.17,SE,137,0.0,0.0,46,0.00,,,0.00,Wunderground v.1.15,2013-04-18 09:07:00,
2013-04-18 02:12:00,49.9,30.5,30.18,SE,137,0.0,0.0,47,0.00,,,0.00,Wunderground v.1.15,2013-04-18 09:12:00,
2013-04-18 02:17:00,49.8,30.4,30.17,SE,137,0.0,0.0,47,0.00,,,0.00,Wunderground v.1.15,2013-04-18 09:17:00,
2013-04-18 02:23:00,49.7,30.8,30.17,SE,137,0.0,0.0,48,0.00,,,0.00,Wunderground v.1.15,2013-04-18 09:23:00,
2013-04-18 02:28:00,49.5,30.6,30.18,SE,137,0.0,1.0,48,0.00,,,0.00,Wunderground v.1.15,2013-04-18 09:28:00,
2013-04-18 02:32:00,49.3,30.9,30.18,SE,137,0.0,0.0,49,0.00,,,0.00,Wunderground v.1.15,2013-04-18 09:32:00,
2013-04-18 02:37:00,49.2,30.8,30.18,SE,137,0.0,0.0,49,0.00,,,0.00,Wunderground v.1.15,2013-04-18 09:37:00,
2013-04-18 02:42:00,49.1,31.2,30.17,SE,137,0.0,0.0,50,0.00,,,0.00,Wunderground v.1.15,2013-04-18 09:42:00,
2013-04-18 02:48:00,48.9,31.1,30.17,SE,137,0.0,0.0,50,0.00,,,0.00,Wunderground v.1.15,2013-04-18 09:48:00,
2013-04-18 02:54:00,48.7,30.4,30.17,SE,137,0.0,2.0,49,0.00,,,0.00,Wunderground v.1.15,2013-04-18 09:54:00,
2013-04-18 02:59:00,48.5,30.2,30.18,SE,137,0.0,2.0,49,0.00,,,0.00,Wunderground v.1.15,2013-04-18 09:59:00,
2013-04-18 03:04:00,48.4,31.1,30.18,SE,137,0.0,0.0,51,0.00,,,0.00,Wunderground v.1.15,2013-04-18 10:04:00,
2013-04-18 03:09:00,48.1,30.8,30.17,SE,137,0.0,1.0,51,0.00,,,0.00,Wunderground v.1.15,2013-04-18 10:09:00,
2013-04-18 03:14:00,48.0,30.7,30.17,WSW,252,0.0,1.0,51,0.00,,,0.00,Wunderground v.1.15,2013-04-18 10:14:00,
2013-04-18 03:19:00,48.0,30.7,30.17,NW,321,0.0,1.0,51,0.00,,,0.00,Wunderground v.1.15,2013-04-18 10:19:00,
2013-04-18 03:24:00,47.9,30.6,30.17,NW,321,0.0,1.0,51,0.00,,,0.00,Wunderground v.1.15,2013-04-18 10:24:00,
2013-04-18 03:29:00,47.8,31.0,30.17,NW,318,0.0,5.0,52,0.00,,,0.00,Wunderground v.1.15,2013-04-18 10:29:00,
2013-04-18 03:34:00,47.7,30.9,30.17,NW,317,0.0,1.0,52,0.00,,,0.00,Wunderground v.1.15,2013-04-18 10:34:00,
2013-04-18 03:39:00,47.5,30.7,30.18,NW,317,0.0,1.0,52,0.00,,,0.00,Wunderground v.1.15,2013-04-18 10:39:00,
2013-04-18 03:44:00,47.4,31.1,30.18,NNE,19,0.0,3.0,53,0.00,,,0.00,Wunderground v.1.15,2013-04-18 10:44:00,
2013-04-18 03:49:00,47.3,31.0,30.18,NNE,15,0.0,3.0,53,0.00,,,0.00,Wunderground v.1.15,2013-04-18 10:49:00,
2013-04-18 03:54:00,47.2,31.8,30.18,NNE,16,0.0,0.0,55,0.00,,,0.00,Wunderground v.1.15,2013-04-18 10:54:00,
2013-04-18 03:59:00,47.1,31.3,30.18,NNE,16,0.0,0.0,54,0.00,,,0.00,Wunderground v.1.15,2013-04-18 10:59:00,
2013-04-18 04:04:00,46.9,31.1,30.18,North,11,0.0,4.0,54,0.00,,,0.00,Wunderground v.1.15,2013-04-18 11:04:00,
2013-04-18 04:09:00,46.8,31.0,30.18,North,10,0.0,4.0,54,0.00,,,0.00,Wunderground v.1.15,2013-04-18 11:09:00,
2013-04-18 04:14:00,46.7,31.8,30.18,NNE,17,0.0,0.0,56,0.00,,,0.00,Wunderground v.1.15,2013-04-18 11:14:00,
2013-04-18 04:19:00,46.7,31.8,30.19,NE,37,0.0,0.0,56,0.00,,,0.00,Wunderground v.1.15,2013-04-18 11:19:00,
2013-04-18 04:24:00,46.5,31.6,30.19,NE,36,0.0,0.0,56,0.00,,,0.00,Wunderground v.1.15,2013-04-18 11:24:00,
2013-04-18 04:29:00,46.4,31.5,30.19,NE,36,0.0,0.0,56,0.00,,,0.00,Wunderground v.1.15,2013-04-18 11:29:00,
2013-04-18 04:34:00,46.3,31.4,30.19,NE,41,0.0,3.0,56,0.00,,,0.00,Wunderground v.1.15,2013-04-18 11:34:00,
2013-04-18 04:39:00,46.2,30.9,30.18,NNE,17,0.0,3.0,55,0.00,,,0.00,Wunderground v.1.15,2013-04-18 11:39:00,
2013-04-18 04:44:00,46.2,30.9,30.19,NNE,17,0.0,0.0,55,0.00,,,0.00,Wunderground v.1.15,2013-04-18 11:44:00,
2013-04-18 04:49:00,46.3,31.0,30.18,NNE,21,0.0,0.0,55,0.00,,,0.00,Wunderground v.1.15,2013-04-18 11:49:00,
2013-04-18 04:54:00,46.3,31.0,30.18,NNE,30,0.0,1.0,55,0.00,,,0.00,Wunderground v.1.15,2013-04-18 11:54:00,
2013-04-18 04:59:00,46.4,31.1,30.18,NNE,31,0.0,1.0,55,0.00,,,0.00,Wunderground v.1.15,2013-04-18 11:59:00,
2013-04-18 05:04:00,46.4,31.1,30.18,NNE,31,0.0,0.0,55,0.00,,,0.00,Wunderground v.1.15,2013-04-18 12:04:00,
2013-04-18 05:09:00,46.4,31.1,30.18,NNE,32,0.0,3.0,55,0.00,,,0.00,Wunderground v.1.15,2013-04-18 12:09:00,
2013-04-18 05:14:00,46.4,31.1,30.18,NNE,32,0.0,0.0,55,0.00,,,0.00,Wunderground v.1.15,2013-04-18 12:14:00,
2013-04-18 05:19:00,46.3,31.0,30.18,NNE,32,0.0,0.0,55,0.00,,,0.00,Wunderground v.1.15,2013-04-18 12:19:00,
2013-04-18 05:24:00,46.3,32.3,30.19,NE,50,0.0,0.0,58,0.00,,,0.00,Wunderground v.1.15,2013-04-18 12:24:00,
2013-04-18 05:29:00,46.2,31.4,30.19,NE,50,0.0,0.0,56,0.00,,,0.00,Wunderground v.1.15,2013-04-18 12:29:00,
2013-04-18 05:34:00,46.1,30.8,30.19,NE,50,0.0,0.0,55,0.00,,,0.00,Wunderground v.1.15,2013-04-18 12:34:00,
2013-04-18 05:39:00,46.0,31.2,30.19,NE,53,0.0,0.0,56,0.00,,,0.00,Wunderground v.1.15,2013-04-18 12:39:00,
2013-04-18 05:44:00,45.8,31.0,30.19,NE,56,0.0,0.0,56,0.00,,,0.00,Wunderground v.1.15,2013-04-18 12:44:00,
2013-04-18 05:49:00,45.7,30.9,30.19,NE,56,0.0,0.0,56,0.00,,,0.00,Wunderground v.1.15,2013-04-18 12:49:00,
2013-04-18 05:54:00,45.6,31.2,30.20,ENE,74,0.0,0.0,57,0.00,,,0.00,Wunderground v.1.15,2013-04-18 12:54:00,
2013-04-18 05:59:00,45.5,31.6,30.20,SE,135,0.0,0.0,58,0.00,,,0.00,Wunderground v.1.15,2013-04-18 12:59:00,
2013-04-18 06:04:00,45.3,31.4,30.20,SE,135,0.0,0.0,58,0.00,,,0.00,Wunderground v.1.15,2013-04-18 13:04:00,
2013-04-18 06:09:00,45.1,31.2,30.21,SE,135,0.0,0.0,58,0.00,,,0.00,Wunderground v.1.15,2013-04-18 13:09:00,
2013-04-18 06:14:00,45.0,31.1,30.21,SE,135,0.0,0.0,58,0.00,,,0.00,Wunderground v.1.15,2013-04-18 13:14:00,
2013-04-18 06:19:00,44.8,31.3,30.21,SSE,165,0.0,0.0,59,0.00,,,0.00,Wunderground v.1.15,2013-04-18 13:19:00,
2013-04-18 06:24:00,44.6,31.6,30.21,NW,307,0.0,0.0,60,0.00,,,0.00,Wunderground v.1.15,2013-04-18 13:24:00,
2013-04-18 06:29:00,44.4,31.8,30.21,WSW,251,0.0,0.0,61,0.00,,,0.00,Wunderground v.1.15,2013-04-18 13:29:00,
2013-04-18 06:34:00,44.1,31.9,30.21,WSW,251,0.0,0.0,62,0.00,,,0.00,Wunderground v.1.15,2013-04-18 13:34:00,
2013-04-18 06:39:00,43.9,31.7,30.21,WSW,254,0.0,0.0,62,0.00,,,0.00,Wunderground v.1.15,2013-04-18 13:39:00,
2013-04-18 06:44:00,43.8,32.0,30.21,WNW,302,0.0,0.0,63,0.00,,,0.00,Wunderground v.1.15,2013-04-18 13:44:00,
2013-04-18 06:49:00,43.7,31.9,30.21,NW,316,0.0,0.0,63,0.00,,,0.00,Wunderground v.1.15,2013-04-18 13:49:00,
2013-04-18 06:54:00,43.7,32.3,30.22,NW,316,0.0,0.0,64,0.00,,,0.00,Wunderground v.1.15,2013-04-18 13:54:00,
2013-04-18 06:59:00,43.5,32.1,30.22,NNW,331,0.0,0.0,64,0.00,,,0.00,Wunderground v.1.15,2013-04-18 13:59:00,
2013-04-18 07:04:00,43.5,32.5,30.22,NNW,338,0.0,0.0,65,0.00,,,0.00,Wunderground v.1.15,2013-04-18 14:04:00,
2013-04-18 07:09:00,43.4,32.4,30.22,NNW,338,0.0,0.0,65,0.00,,,0.00,Wunderground v.1.15,2013-04-18 14:09:00,
2013-04-18 07:14:00,43.5,32.9,30.22,WSW,248,0.0,0.0,66,0.00,,,0.00,Wunderground v.1.15,2013-04-18 14:14:00,
2013-04-18 07:19:00,44.0,33.7,30.22,WSW,248,0.0,0.0,67,0.00,,,0.00,Wunderground v.1.15,2013-04-18 14:19:00,
2013-04-18 07:24:00,44.4,34.1,30.23,WSW,248,0.0,0.0,67,0.00,,,0.00,Wunderground v.1.15,2013-04-18 14:24:00,
2013-04-18 07:29:00,44.9,34.2,30.23,WSW,248,0.0,0.0,66,0.00,,,0.00,Wunderground v.1.15,2013-04-18 14:29:00,
2013-04-18 07:34:00,45.5,34.8,30.23,WSW,248,0.0,0.0,66,0.00,,,0.00,Wunderground v.1.15,2013-04-18 14:34:00,
2013-04-18 07:39:00,46.2,35.1,30.23,WSW,248,0.0,0.0,65,0.00,,,0.00,Wunderground v.1.15,2013-04-18 14:39:00,
2013-04-18 07:44:00,47.3,35.3,30.23,WSW,248,0.0,0.0,63,0.00,,,0.00,Wunderground v.1.15,2013-04-18 14:44:00,
2013-04-18 07:49:00,47.9,35.1,30.23,West,265,0.0,0.0,61,0.00,,,0.00,Wunderground v.1.15,2013-04-18 14:49:00,
2013-04-18 07:54:00,48.8,35.5,30.23,West,265,0.0,0.0,60,0.00,,,0.00,Wunderground v.1.15,2013-04-18 14:54:00,
2013-04-18 07:59:00,49.8,34.7,30.24,West,265,0.0,1.0,56,0.00,,,0.00,Wunderground v.1.15,2013-04-18 14:59:00,
2013-04-18 08:05:00,50.6,35.0,30.24,West,265,0.0,0.0,55,0.00,,,0.00,Wunderground v.1.15,2013-04-18 15:05:00,
2013-04-18 08:10:00,50.8,34.7,30.24,West,265,0.0,0.0,54,0.00,,,0.00,Wunderground v.1.15,2013-04-18 15:10:00,
2013-04-18 08:15:00,51.3,34.7,30.24,West,265,0.0,0.0,53,0.00,,,0.00,Wunderground v.1.15,2013-04-18 15:15:00,
2013-04-18 08:20:00,52.0,35.4,30.24,West,265,0.0,0.0,53,0.00,,,0.00,Wunderground v.1.15,2013-04-18 15:20:00,
2013-04-18 08:25:00,52.5,34.4,30.24,West,265,0.0,0.0,50,0.00,,,0.00,Wunderground v.1.15,2013-04-18 15:25:00,
2013-04-18 08:30:00,53.0,33.3,30.24,West,265,0.0,0.0,47,0.00,,,0.00,Wunderground v.1.15,2013-04-18 15:30:00,
2013-04-18 08:35:00,53.4,32.0,30.24,SSE,157,1.0,1.0,44,0.00,,,0.00,Wunderground v.1.15,2013-04-18 15:35:00,
2013-04-18 08:40:00,53.8,32.4,30.24,SSE,153,0.0,0.0,44,0.00,,,0.00,Wunderground v.1.15,2013-04-18 15:40:00,
2013-04-18 08:45:00,54.1,32.6,30.24,SSE,163,0.0,1.0,44,0.00,,,0.00,Wunderground v.1.15,2013-04-18 15:45:00,
2013-04-18 08:50:00,54.3,32.3,30.24,South,169,0.0,0.0,43,0.00,,,0.00,Wunderground v.1.15,2013-04-18 15:50:00,
2013-04-18 08:55:00,54.5,31.9,30.24,SSE,161,0.0,3.0,42,0.00,,,0.00,Wunderground v.1.15,2013-04-18 15:55:00,
2013-04-18 09:00:00,54.7,30.2,30.24,South,176,2.0,2.0,39,0.00,,,0.00,Wunderground v.1.15,2013-04-18 16:00:00,
2013-04-18 09:05:00,55.0,29.8,30.24,South,171,0.0,3.0,38,0.00,,,0.00,Wunderground v.1.15,2013-04-18 16:05:00,
2013-04-18 09:10:00,55.6,29.7,30.24,South,173,0.0,3.0,37,0.00,,,0.00,Wunderground v.1.15,2013-04-18 16:10:00,
2013-04-18 09:15:00,56.0,30.1,30.24,South,184,0.0,3.0,37,0.00,,,0.00,Wunderground v.1.15,2013-04-18 16:15:00,
2013-04-18 09:20:00,56.5,30.5,30.24,SSW,200,0.0,0.0,37,0.00,,,0.00,Wunderground v.1.15,2013-04-18 16:20:00,
2013-04-18 09:25:00,57.0,30.3,30.24,SSW,195,0.0,3.0,36,0.00,,,0.00,Wunderground v.1.15,2013-04-18 16:25:00,
2013-04-18 09:30:00,57.5,30.7,30.24,SSW,207,1.0,1.0,36,0.00,,,0.00,Wunderground v.1.15,2013-04-18 16:30:00,
2013-04-18 09:35:00,57.7,30.9,30.24,SW,214,1.0,5.0,36,0.00,,,0.00,Wunderground v.1.15,2013-04-18 16:35:00,
2013-04-18 09:40:00,57.9,31.1,30.24,SW,217,0.0,1.0,36,0.00,,,0.00,Wunderground v.1.15,2013-04-18 16:40:00,
2013-04-18 09:45:00,58.5,30.9,30.24,SW,217,3.0,4.0,35,0.00,,,0.00,Wunderground v.1.15,2013-04-18 16:45:00,
2013-04-18 09:50:00,58.9,30.6,30.24,South,188,0.0,1.0,34,0.00,,,0.00,Wunderground v.1.15,2013-04-18 16:50:00,
2013-04-18 09:55:00,59.5,30.3,30.24,ESE,105,0.0,1.0,33,0.00,,,0.00,Wunderground v.1.15,2013-04-18 16:55:00,
2013-04-18 10:02:00,60.0,30.0,30.24,SSW,202,0.0,6.0,32,0.00,,,0.00,Wunderground v.1.15,2013-04-18 17:02:00,
2013-04-18 10:07:00,60.4,31.1,30.24,SSW,209,0.0,6.0,33,0.00,,,0.00,Wunderground v.1.15,2013-04-18 17:07:00,
2013-04-18 10:12:00,60.9,30.0,30.24,SSW,213,0.0,4.0,31,0.00,,,0.00,Wunderground v.1.15,2013-04-18 17:12:00,
2013-04-18 10:17:00,61.6,30.6,30.25,SSW,211,0.0,4.0,31,0.00,,,0.00,Wunderground v.1.15,2013-04-18 17:17:00,
2013-04-18 10:22:00,61.9,30.9,30.24,SW,218,0.0,1.0,31,0.00,,,0.00,Wunderground v.1.15,2013-04-18 17:22:00,
2013-04-18 10:27:00,62.2,29.5,30.25,South,186,0.0,1.0,29,0.00,,,0.00,Wunderground v.1.15,2013-04-18 17:27:00,
2013-04-18 10:32:00,62.3,29.6,30.24,SW,214,0.0,5.0,29,0.00,,,0.00,Wunderground v.1.15,2013-04-18 17:32:00,
2013-04-18 10:37:00,62.3,30.4,30.24,SW,222,0.0,5.0,30,0.00,,,0.00,Wunderground v.1.15,2013-04-18 17:37:00,
2013-04-18 10:42:00,62.9,29.3,30.24,South,178,0.0,3.0,28,0.00,,,0.00,Wunderground v.1.15,2013-04-18 17:42:00,
2013-04-18 10:47:00,63.5,30.6,30.25,ESE,123,0.0,3.0,29,0.00,,,0.00,Wunderground v.1.15,2013-04-18 17:47:00,
2013-04-18 10:52:00,64.5,29.7,30.25,SSW,207,0.0,1.0,27,0.00,,,0.00,Wunderground v.1.15,2013-04-18 17:52:00,
2013-04-18 10:57:00,64.7,30.8,30.25,WSW,249,0.0,2.0,28,0.00,,,0.00,Wunderground v.1.15,2013-04-18 17:57:00,
2013-04-18 11:02:00,64.8,30.9,30.25,NW,309,3.0,3.0,28,0.00,,,0.00,Wunderground v.1.15,2013-04-18 18:02:00,
2013-04-18 11:07:00,64.9,31.0,30.25,WNW,300,0.0,3.0,28,0.00,,,0.00,Wunderground v.1.15,2013-04-18 18:07:00,
2013-04-18 11:12:00,65.4,31.4,30.25,South,190,0.0,0.0,28,0.00,,,0.00,Wunderground v.1.15,2013-04-18 18:12:00,
2013-04-18 11:17:00,65.5,30.6,30.25,SW,223,1.0,5.0,27,0.00,,,0.00,Wunderground v.1.15,2013-04-18 18:17:00,
2013-04-18 11:22:00,65.7,29.8,30.25,SW,226,0.0,1.0,26,0.00,,,0.00,Wunderground v.1.15,2013-04-18 18:22:00,
2013-04-18 11:27:00,66.4,29.5,30.25,SW,225,0.0,1.0,25,0.00,,,0.00,Wunderground v.1.15,2013-04-18 18:27:00,
2013-04-18 11:32:00,66.9,30.9,30.24,SW,225,0.0,0.0,26,0.00,,,0.00,Wunderground v.1.15,2013-04-18 18:32:00,
2013-04-18 11:38:00,67.4,31.3,30.24,North,10,0.0,2.0,26,0.00,,,0.00,Wunderground v.1.15,2013-04-18 18:38:00,
2013-04-18 11:43:00,68.1,29.9,30.24,SW,234,0.0,4.0,24,0.00,,,0.00,Wunderground v.1.15,2013-04-18 18:43:00,
2013-04-18 11:49:00,68.3,30.1,30.24,NW,326,0.0,4.0,24,0.00,,,0.00,Wunderground v.1.15,2013-04-18 18:49:00,
2013-04-18 11:54:00,69.1,29.7,30.24,ESE,122,0.0,1.0,23,0.00,,,0.00,Wunderground v.1.15,2013-04-18 18:54:00,
2013-04-18 11:59:00,69.9,31.4,30.24,SE,138,0.0,1.0,24,0.00,,,0.00,Wunderground v.1.15,2013-04-18 18:59:00,
2013-04-18 12:04:00,69.9,30.4,30.24,South,188,0.0,5.0,23,0.00,,,0.00,Wunderground v.1.15,2013-04-18 19:04:00,
2013-04-18 12:09:00,70.4,30.8,30.24,ESE,121,0.0,5.0,23,0.00,,,0.00,Wunderground v.1.15,2013-04-18 19:09:00,
2013-04-18 12:14:00,70.7,30.0,30.24,NE,53,0.0,0.0,22,0.00,,,0.00,Wunderground v.1.15,2013-04-18 19:14:00,
2013-04-18 12:19:00,70.6,31.0,30.24,East,101,0.0,2.0,23,0.00,,,0.00,Wunderground v.1.15,2013-04-18 19:19:00,
2013-04-18 12:24:00,70.5,30.9,30.24,SE,145,0.0,4.0,23,0.00,,,0.00,Wunderground v.1.15,2013-04-18 19:24:00,
2013-04-18 12:29:00,71.6,32.9,30.24,SSE,151,0.0,4.0,24,0.00,,,0.00,Wunderground v.1.15,2013-04-18 19:29:00,
2013-04-18 12:34:00,72.5,31.5,30.24,SSE,163,0.0,1.0,22,0.00,,,0.00,Wunderground v.1.15,2013-04-18 19:34:00,
2013-04-18 12:39:00,72.2,31.2,30.24,North,11,0.0,2.0,22,0.00,,,0.00,Wunderground v.1.15,2013-04-18 19:39:00,
2013-04-18 12:44:00,71.3,30.5,30.24,East,91,0.0,6.0,22,0.00,,,0.00,Wunderground v.1.15,2013-04-18 19:44:00,
2013-04-18 12:49:00,71.4,29.4,30.23,ENE,74,0.0,6.0,21,0.00,,,0.00,Wunderground v.1.15,2013-04-18 19:49:00,
2013-04-18 12:55:00,72.2,30.1,30.23,South,190,1.0,1.0,21,0.00,,,0.00,Wunderground v.1.15,2013-04-18 19:55:00,
2013-04-18 13:00:00,72.6,30.4,30.23,SE,145,2.0,5.0,21,0.00,,,0.00,Wunderground v.1.15,2013-04-18 20:00:00,
2013-04-18 13:05:00,73.0,28.3,30.22,SE,126,0.0,3.0,19,0.00,,,0.00,Wunderground v.1.15,2013-04-18 20:05:00,
2013-04-18 13:10:00,73.4,29.9,30.22,South,186,1.0,3.0,20,0.00,,,0.00,Wunderground v.1.15,2013-04-18 20:10:00,
2013-04-18 13:15:00,73.5,29.9,30.22,SW,229,2.0,2.0,20,0.00,,,0.00,Wunderground v.1.15,2013-04-18 20:15:00,
2013-04-18 13:20:00,73.5,31.1,30.22,West,269,0.0,0.0,21,0.00,,,0.00,Wunderground v.1.15,2013-04-18 20:20:00,
2013-04-18 13:25:00,73.2,29.7,30.22,WNW,288,1.0,4.0,20,0.00,,,0.00,Wunderground v.1.15,2013-04-18 20:25:00,
2013-04-18 13:30:00,73.7,31.3,30.22,WNW,294,0.0,0.0,21,0.00,,,0.00,Wunderground v.1.15,2013-04-18 20:30:00,
2013-04-18 13:35:00,74.0,29.1,30.22,NNW,329,0.0,2.0,19,0.00,,,0.00,Wunderground v.1.15,2013-04-18 20:35:00,
2013-04-18 13:40:00,74.1,29.2,30.22,NNE,32,0.0,1.0,19,0.00,,,0.00,Wunderground v.1.15,2013-04-18 20:40:00,
2013-04-18 13:45:00,73.8,30.2,30.22,NW,314,0.0,3.0,20,0.00,,,0.00,Wunderground v.1.15,2013-04-18 20:45:00,
2013-04-18 13:50:00,74.2,29.3,30.22,West,264,0.0,2.0,19,0.00,,,0.00,Wunderground v.1.15,2013-04-18 20:50:00,
2013-04-18 13:56:00,74.3,28.0,30.22,ENE,68,0.0,2.0,18,0.00,,,0.00,Wunderground v.1.15,2013-04-18 20:56:00,
2013-04-18 14:01:00,74.5,30.8,30.22,East,88,0.0,0.0,20,0.00,,,0.00,Wunderground v.1.15,2013-04-18 21:01:00,
2013-04-18 14:06:00,75.1,30.0,30.21,West,271,0.0,5.0,19,0.00,,,0.00,Wunderground v.1.15,2013-04-18 21:06:00,
2013-04-18 14:11:00,75.5,29.0,30.21,WNW,294,1.0,1.0,18,0.00,,,0.00,Wunderground v.1.15,2013-04-18 21:11:00,
2013-04-18 14:16:00,75.5,30.3,30.21,NNW,340,0.0,2.0,19,0.00,,,0.00,Wunderground v.1.15,2013-04-18 21:16:00,
2013-04-18 14:21:00,76.0,28.0,30.21,WNW,302,0.0,1.0,17,0.00,,,0.00,Wunderground v.1.15,2013-04-18 21:21:00,
2013-04-18 14:26:00,76.3,29.7,30.21,WNW,290,0.0,3.0,18,0.00,,,0.00,Wunderground v.1.15,2013-04-18 21:26:00,
2013-04-18 14:31:00,76.0,28.0,30.21,ESE,107,0.0,0.0,17,0.00,,,0.00,Wunderground v.1.15,2013-04-18 21:31:00,
2013-04-18 14:37:00,76.5,29.8,30.21,ENE,65,0.0,2.0,18,0.00,,,0.00,Wunderground v.1.15,2013-04-18 21:37:00,
2013-04-18 14:42:00,76.8,30.1,30.20,NW,306,0.0,1.0,18,0.00,,,0.00,Wunderground v.1.15,2013-04-18 21:42:00,
2013-04-18 14:47:00,76.7,30.0,30.20,NE,53,0.0,4.0,18,0.00,,,0.00,Wunderground v.1.15,2013-04-18 21:47:00,
2013-04-18 14:52:00,76.8,28.7,30.20,ESE,113,2.0,3.0,17,0.00,,,0.00,Wunderground v.1.15,2013-04-18 21:52:00,
2013-04-18 14:57:00,76.7,30.0,30.20,ESE,119,0.0,3.0,18,0.00,,,0.00,Wunderground v.1.15,2013-04-18 21:57:00,
2013-04-18 15:02:00,77.7,29.4,30.19,North,5,3.0,3.0,17,0.00,,,0.00,Wunderground v.1.15,2013-04-18 22:02:00,
2013-04-18 15:07:00,78.1,29.7,30.19,NW,317,1.0,3.0,17,0.00,,,0.00,Wunderground v.1.15,2013-04-18 22:07:00,
2013-04-18 15:12:00,78.8,30.3,30.19,NNE,15,0.0,4.0,17,0.00,,,0.00,Wunderground v.1.15,2013-04-18 22:12:00,
2013-04-18 15:17:00,79.0,28.9,30.19,NNE,15,0.0,4.0,16,0.00,,,0.00,Wunderground v.1.15,2013-04-18 22:17:00,
2013-04-18 15:22:00,79.4,27.7,30.18,WNW,284,1.0,7.0,15,0.00,,,0.00,Wunderground v.1.15,2013-04-18 22:22:00,
2013-04-18 15:27:00,78.3,28.4,30.18,WSW,238,5.0,7.0,16,0.00,,,0.00,Wunderground v.1.15,2013-04-18 22:27:00,
2013-04-18 15:32:00,76.6,28.5,30.18,SW,232,2.0,5.0,17,0.00,,,0.00,Wunderground v.1.15,2013-04-18 22:32:00,
2013-04-18 15:37:00,76.5,28.4,30.18,East,97,1.0,5.0,17,0.00,,,0.00,Wunderground v.1.15,2013-04-18 22:37:00,
2013-04-18 15:42:00,76.6,28.5,30.18,North,5,0.0,3.0,17,0.00,,,0.00,Wunderground v.1.15,2013-04-18 22:42:00,
2013-04-18 15:47:00,76.4,29.7,30.18,NW,322,0.0,3.0,18,0.00,,,0.00,Wunderground v.1.15,2013-04-18 22:47:00,
2013-04-18 15:52:00,76.5,26.9,30.17,ENE,75,0.0,2.0,16,0.00,,,0.00,Wunderground v.1.15,2013-04-18 22:52:00,
2013-04-18 15:57:00,76.7,28.6,30.17,NE,48,0.0,2.0,17,0.00,,,0.00,Wunderground v.1.15,2013-04-18 22:57:00,
2013-04-18 16:03:00,76.8,25.6,30.17,East,85,0.0,4.0,15,0.00,,,0.00,Wunderground v.1.15,2013-04-18 23:03:00,
2013-04-18 16:08:00,77.3,27.6,30.17,NW,314,1.0,4.0,16,0.00,,,0.00,Wunderground v.1.15,2013-04-18 23:08:00,
2013-04-18 16:14:00,77.7,26.3,30.17,WSW,244,0.0,2.0,15,0.00,,,0.00,Wunderground v.1.15,2013-04-18 23:14:00,
2013-04-18 16:19:00,78.0,26.6,30.16,West,267,2.0,5.0,15,0.00,,,0.00,Wunderground v.1.15,2013-04-18 23:19:00,
2013-04-18 16:24:00,78.0,26.6,30.16,WSW,241,0.0,4.0,15,0.00,,,0.00,Wunderground v.1.15,2013-04-18 23:24:00,
2013-04-18 16:29:00,77.8,28.0,30.16,West,281,0.0,4.0,16,0.00,,,0.00,Wunderground v.1.15,2013-04-18 23:29:00,
2013-04-18 16:34:00,77.6,27.8,30.16,ENE,68,0.0,3.0,16,0.00,,,0.00,Wunderground v.1.15,2013-04-18 23:34:00,
2013-04-18 16:39:00,78.0,28.1,30.16,ESE,106,1.0,3.0,16,0.00,,,0.00,Wunderground v.1.15,2013-04-18 23:39:00,
2013-04-18 16:44:00,78.4,28.5,30.16,ESE,107,0.0,1.0,16,0.00,,,0.00,Wunderground v.1.15,2013-04-18 23:44:00,
2013-04-18 16:49:00,79.0,30.4,30.16,South,188,0.0,1.0,17,0.00,,,0.00,Wunderground v.1.15,2013-04-18 23:49:00,
2013-04-18 16:54:00,79.7,29.5,30.15,South,184,0.0,1.0,16,0.00,,,0.00,Wunderground v.1.15,2013-04-18 23:54:00,
2013-04-18 16:59:00,80.2,28.3,30.16,NE,55,0.0,2.0,15,0.00,,,0.00,Wunderground v.1.15,2013-04-18 23:59:00,
2013-04-18 17:04:00,80.1,29.8,30.16,NE,56,0.0,1.0,16,0.00,,,0.00,Wunderground v.1.15,2013-04-19 00:04:00,
2013-04-18 17:09:00,80.4,28.5,30.15,NNW,331,0.0,1.0,15,0.00,,,0.00,Wunderground v.1.15,2013-04-19 00:09:00,
2013-04-18 17:15:00,80.3,28.4,30.15,North,360,0.0,4.0,15,0.00,,,0.00,Wunderground v.1.15,2013-04-19 00:15:00,
2013-04-18 17:20:00,80.1,28.3,30.16,NNW,327,0.0,0.0,15,0.00,,,0.00,Wunderground v.1.15,2013-04-19 00:20:00,
2013-04-18 17:25:00,79.8,28.0,30.16,North,5,3.0,4.0,15,0.00,,,0.00,Wunderground v.1.15,2013-04-19 00:25:00,
2013-04-18 17:30:00,79.4,29.3,30.16,NNW,333,1.0,1.0,16,0.00,,,0.00,Wunderground v.1.15,2013-04-19 00:30:00,
2013-04-18 17:35:00,79.5,29.4,30.16,North,10,0.0,3.0,16,0.00,,,0.00,Wunderground v.1.15,2013-04-19 00:35:00,
2013-04-18 17:40:00,79.5,27.8,30.16,North,9,0.0,0.0,15,0.00,,,0.00,Wunderground v.1.15,2013-04-19 00:40:00,
2013-04-18 17:45:00,79.2,29.1,30.16,NW,310,0.0,6.0,16,0.00,,,0.00,Wunderground v.1.15,2013-04-19 00:45:00,
2013-04-18 17:50:00,79.0,27.4,30.15,North,350,0.0,0.0,15,0.00,,,0.00,Wunderground v.1.15,2013-04-19 00:50:00,
2013-04-18 17:55:00,78.8,27.2,30.15,North,351,0.0,1.0,15,0.00,,,0.00,Wunderground v.1.15,2013-04-19 00:55:00,
2013-04-18 18:00:00,78.9,28.9,30.15,WNW,290,0.0,1.0,16,0.00,,,0.00,Wunderground v.1.15,2013-04-19 01:00:00,
2013-04-18 18:05:00,78.9,28.9,30.15,NNE,15,0.0,1.0,16,0.00,,,0.00,Wunderground v.1.15,2013-04-19 01:05:00,
2013-04-18 18:11:00,78.7,28.7,30.15,ENE,68,0.0,0.0,16,0.00,,,0.00,Wunderground v.1.15,2013-04-19 01:11:00,
2013-04-18 18:16:00,78.5,28.5,30.15,NE,51,0.0,3.0,16,0.00,,,0.00,Wunderground v.1.15,2013-04-19 01:16:00,
2013-04-18 18:21:00,78.1,28.2,30.15,NE,36,0.0,0.0,16,0.00,,,0.00,Wunderground v.1.15,2013-04-19 01:21:00,
2013-04-18 18:26:00,77.8,28.0,30.15,East,81,0.0,0.0,16,0.00,,,0.00,Wunderground v.1.15,2013-04-19 01:26:00,
2013-04-18 18:31:00,77.4,29.1,30.15,NNE,29,0.0,0.0,17,0.00,,,0.00,Wunderground v.1.15,2013-04-19 01:31:00,
2013-04-18 18:36:00,77.4,29.1,30.15,NNE,29,0.0,0.0,17,0.00,,,0.00,Wunderground v.1.15,2013-04-19 01:36:00,
2013-04-18 18:41:00,77.4,27.7,30.15,NNE,29,0.0,0.0,16,0.00,,,0.00,Wunderground v.1.15,2013-04-19 01:41:00,
2013-04-18 18:46:00,77.2,27.5,30.15,NE,40,0.0,1.0,16,0.00,,,0.00,Wunderground v.1.15,2013-04-19 01:46:00,
2013-04-18 18:51:00,77.0,28.8,30.15,NE,46,0.0,0.0,17,0.00,,,0.00,Wunderground v.1.15,2013-04-19 01:51:00,
2013-04-18 18:56:00,76.8,30.1,30.15,East,96,0.0,3.0,18,0.00,,,0.00,Wunderground v.1.15,2013-04-19 01:56:00,
2013-04-18 19:01:00,76.4,29.7,30.15,East,96,0.0,0.0,18,0.00,,,0.00,Wunderground v.1.15,2013-04-19 02:01:00,
2013-04-18 19:06:00,76.0,29.4,30.15,East,97,0.0,0.0,18,0.00,,,0.00,Wunderground v.1.15,2013-04-19 02:06:00,
2013-04-18 19:11:00,75.8,30.6,30.15,East,82,0.0,0.0,19,0.00,,,0.00,Wunderground v.1.15,2013-04-19 02:11:00,
2013-04-18 19:16:00,75.6,31.7,30.15,North,10,0.0,0.0,20,0.00,,,0.00,Wunderground v.1.15,2013-04-19 02:16:00,
2013-04-18 19:21:00,75.4,31.5,30.15,North,10,0.0,0.0,20,0.00,,,0.00,Wunderground v.1.15,2013-04-19 02:21:00,
2013-04-18 19:27:00,75.0,32.4,30.15,North,10,0.0,0.0,21,0.00,,,0.00,Wunderground v.1.15,2013-04-19 02:27:00,
2013-04-18 19:32:00,74.7,33.3,30.15,North,10,0.0,0.0,22,0.00,,,0.00,Wunderground v.1.15,2013-04-19 02:32:00,
2013-04-18 19:37:00,74.2,32.9,30.15,North,10,0.0,0.0,22,0.00,,,0.00,Wunderground v.1.15,2013-04-19 02:37:00,
2013-04-18 19:42:00,73.5,33.4,30.15,North,10,0.0,0.0,23,0.00,,,0.00,Wunderground v.1.15,2013-04-19 02:42:00,
2013-04-18 19:47:00,73.0,31.9,30.15,North,10,0.0,0.0,22,0.00,,,0.00,Wunderground v.1.15,2013-04-19 02:47:00,
2013-04-18 19:52:00,72.5,33.6,30.15,North,10,0.0,0.0,24,0.00,,,0.00,Wunderground v.1.15,2013-04-19 02:52:00,
2013-04-18 19:57:00,71.7,34.0,30.15,North,10,0.0,0.0,25,0.00,,,0.00,Wunderground v.1.15,2013-04-19 02:57:00,
2013-04-18 20:02:00,70.9,33.3,30.15,North,10,0.0,0.0,25,0.00,,,0.00,Wunderground v.1.15,2013-04-19 03:02:00,
2013-04-18 20:07:00,70.4,33.9,30.15,North,10,0.0,1.0,26,0.00,,,0.00,Wunderground v.1.15,2013-04-19 03:07:00,
2013-04-18 20:12:00,69.8,34.3,30.15,North,10,0.0,0.0,27,0.00,,,0.00,Wunderground v.1.15,2013-04-19 03:12:00,
2013-04-18 20:18:00,69.1,33.7,30.16,North,10,0.0,0.0,27,0.00,,,0.00,Wunderground v.1.15,2013-04-19 03:18:00,
2013-04-18 20:24:00,68.6,33.3,30.16,North,10,0.0,0.0,27,0.00,,,0.00,Wunderground v.1.15,2013-04-19 03:24:00,
2013-04-18 20:29:00,68.1,32.8,30.16,North,10,0.0,0.0,27,0.00,,,0.00,Wunderground v.1.15,2013-04-19 03:29:00,
2013-04-18 20:34:00,67.7,33.4,30.16,North,355,0.0,0.0,28,0.00,,,0.00,Wunderground v.1.15,2013-04-19 03:34:00,
2013-04-18 20:39:00,67.2,33.8,30.16,NNW,327,0.0,0.0,29,0.00,,,0.00,Wunderground v.1.15,2013-04-19 03:39:00,
2013-04-18 20:44:00,66.8,33.5,30.16,NNW,327,0.0,0.0,29,0.00,,,0.00,Wunderground v.1.15,2013-04-19 03:44:00,
2013-04-18 20:49:00,66.4,33.2,30.16,NNW,327,0.0,0.0,29,0.00,,,0.00,Wunderground v.1.15,2013-04-19 03:49:00,
2013-04-18 20:54:00,66.0,33.7,30.16,NNW,327,0.0,0.0,30,0.00,,,0.00,Wunderground v.1.15,2013-04-19 03:54:00,
2013-04-18 20:59:00,65.6,34.1,30.16,NNW,327,0.0,0.0,31,0.00,,,0.00,Wunderground v.1.15,2013-04-19 03:59:00,
2013-04-18 21:01:00,65.5,34.0,30.17,NNW,327,0.0,0.0,31,0.00,,,0.00,Wunderground v.1.15,2013-04-19 04:01:00,
2013-04-18 21:07:00,65.1,33.7,30.17,NNW,327,0.0,0.0,31,0.00,,,0.00,Wunderground v.1.15,2013-04-19 04:07:00,
2013-04-18 21:12:00,64.8,32.6,30.17,NNW,327,0.0,0.0,30,0.00,,,0.00,Wunderground v.1.15,2013-04-19 04:12:00,
2013-04-18 21:17:00,64.6,32.4,30.17,NNW,327,0.0,0.0,30,0.00,,,0.00,Wunderground v.1.15,2013-04-19 04:17:00,
2013-04-18 21:22:00,64.3,33.8,30.17,NW,324,0.0,0.0,32,0.00,,,0.00,Wunderground v.1.15,2013-04-19 04:22:00,
2013-04-18 21:27:00,64.1,33.6,30.17,NW,324,0.0,0.0,32,0.00,,,0.00,Wunderground v.1.15,2013-04-19 04:27:00,
2013-04-18 21:32:00,63.9,33.4,30.17,NW,324,0.0,0.0,32,0.00,,,0.00,Wunderground v.1.15,2013-04-19 04:32:00,
2013-04-18 21:37:00,63.7,33.3,30.17,NNW,341,0.0,0.0,32,0.00,,,0.00,Wunderground v.1.15,2013-04-19 04:37:00,
2013-04-18 21:42:00,63.6,33.9,30.17,North,355,0.0,0.0,33,0.00,,,0.00,Wunderground v.1.15,2013-04-19 04:42:00,
2013-04-18 21:47:00,63.4,33.0,30.18,North,355,0.0,0.0,32,0.00,,,0.00,Wunderground v.1.15,2013-04-19 04:47:00,
2013-04-18 21:52:00,63.2,32.8,30.18,North,355,0.0,0.0,32,0.00,,,0.00,Wunderground v.1.15,2013-04-19 04:52:00,
2013-04-18 21:57:00,63.0,33.4,30.18,North,355,0.0,0.0,33,0.00,,,0.00,Wunderground v.1.15,2013-04-19 04:57:00,
2013-04-18 22:02:00,62.7,34.6,30.18,North,355,0.0,0.0,35,0.00,,,0.00,Wunderground v.1.15,2013-04-19 05:02:00,
2013-04-18 22:07:00,62.5,33.0,30.18,North,355,0.0,0.0,33,0.00,,,0.00,Wunderground v.1.15,2013-04-19 05:07:00,
2013-04-18 22:12:00,62.3,33.6,30.19,North,355,0.0,0.0,34,0.00,,,0.00,Wunderground v.1.15,2013-04-19 05:12:00,
2013-04-18 22:17:00,62.1,36.2,30.19,North,355,0.0,0.0,38,0.00,,,0.00,Wunderground v.1.15,2013-04-19 05:17:00,
2013-04-18 22:22:00,61.6,36.4,30.19,North,355,0.0,0.0,39,0.00,,,0.00,Wunderground v.1.15,2013-04-19 05:22:00,
2013-04-18 22:27:00,61.2,36.7,30.19,North,355,0.0,0.0,40,0.00,,,0.00,Wunderground v.1.15,2013-04-19 05:27:00,
2013-04-18 22:32:00,61.0,35.8,30.19,North,355,0.0,0.0,39,0.00,,,0.00,Wunderground v.1.15,2013-04-19 05:32:00,
2013-04-18 22:37:00,60.7,36.8,30.19,North,355,0.0,0.0,41,0.00,,,0.00,Wunderground v.1.15,2013-04-19 05:37:00,
2013-04-18 22:42:00,60.2,37.6,30.18,North,355,0.0,0.0,43,0.00,,,0.00,Wunderground v.1.15,2013-04-19 05:42:00,
2013-04-18 22:47:00,59.9,36.7,30.18,North,355,0.0,0.0,42,0.00,,,0.00,Wunderground v.1.15,2013-04-19 05:47:00,
2013-04-18 22:52:00,59.5,36.4,30.18,North,355,0.0,0.0,42,0.00,,,0.00,Wunderground v.1.15,2013-04-19 05:52:00,
2013-04-18 22:57:00,59.1,36.0,30.18,North,355,0.0,0.0,42,0.00,,,0.00,Wunderground v.1.15,2013-04-19 05:57:00,
2013-04-18 23:02:00,59.0,36.5,30.18,North,355,0.0,0.0,43,0.00,,,0.00,Wunderground v.1.15,2013-04-19 06:02:00,
2013-04-18 23:08:00,58.7,36.8,30.17,North,355,0.0,0.0,44,0.00,,,0.00,Wunderground v.1.15,2013-04-19 06:08:00,
2013-04-18 23:13:00,58.5,35.5,30.17,North,350,0.0,0.0,42,0.00,,,0.00,Wunderground v.1.15,2013-04-19 06:13:00,
2013-04-18 23:18:00,58.4,37.1,30.17,North,355,0.0,0.0,45,0.00,,,0.00,Wunderground v.1.15,2013-04-19 06:18:00,
2013-04-18 23:23:00,58.3,36.5,30.17,North,355,0.0,0.0,44,0.00,,,0.00,Wunderground v.1.15,2013-04-19 06:23:00,
2013-04-18 23:28:00,58.1,35.7,30.17,North,355,0.0,0.0,43,0.00,,,0.00,Wunderground v.1.15,2013-04-19 06:28:00,
2013-04-18 23:34:00,57.9,36.7,30.17,North,355,0.0,0.0,45,0.00,,,0.00,Wunderground v.1.15,2013-04-19 06:34:00,
2013-04-18 23:39:00,57.8,37.1,30.17,North,355,0.0,0.0,46,0.00,,,0.00,Wunderground v.1.15,2013-04-19 06:39:00,
2013-04-18 23:44:00,57.6,36.4,30.17,North,355,0.0,0.0,45,0.00,,,0.00,Wunderground v.1.15,2013-04-19 06:44:00,
2013-04-18 23:49:00,57.4,37.9,30.18,North,355,0.0,0.0,48,0.00,,,0.00,Wunderground v.1.15,2013-04-19 06:49:00,
2013-04-18 23:54:00,57.2,38.7,30.18,North,355,0.0,0.0,50,0.00,,,0.00,Wunderground v.1.15,2013-04-19 06:54:00,
2013-04-18 23:59:00,57.0,38.0,30.18,North,355,0.0,0.0,49,0.00,,,0.00,Wunderground v.1.15,2013-04-19 06:59:00,